createdAt,value
2023-05-16T00:00:57.035Z,85.41
2023-05-16T00:01:57.131Z,85.51
2023-05-16T00:02:57.745Z,85.57
2023-05-16T00:03:57.079Z,85.51
2023-05-16T00:04:56.981Z,85.47
2023-05-16T00:05:56.915Z,85.51
2023-05-16T00:06:56.975Z,85.51
2023-05-16T00:07:56.942Z,85.51
2023-05-16T00:08:56.922Z,85.61
2023-05-16T00:09:56.890Z,85.51
2023-05-16T00:10:56.942Z,85.21
2023-05-16T00:11:56.852Z,85.30
2023-05-16T00:12:56.864Z,85.30
2023-05-16T00:13:56.909Z,85.51
2023-05-16T00:14:56.853Z,85.00
2023-05-16T00:15:56.816Z,85.21
2023-05-16T00:16:57.070Z,85.51
2023-05-16T00:17:57.058Z,85.41
2023-05-16T00:18:57.194Z,85.21
2023-05-16T00:19:56.799Z,85.00
2023-05-16T00:20:56.791Z,85.21
2023-05-16T00:21:56.774Z,85.41
2023-05-16T00:22:56.773Z,85.51
2023-05-16T00:23:56.735Z,85.51
2023-05-16T00:24:57.044Z,85.14
2023-05-16T00:25:56.723Z,85.35
2023-05-16T00:26:56.764Z,85.65
2023-05-16T00:27:56.673Z,85.55
2023-05-16T00:28:56.688Z,85.65
2023-05-16T00:29:56.649Z,85.75
2023-05-16T00:30:56.668Z,85.55
2023-05-16T00:31:56.711Z,85.35
2023-05-16T00:32:56.733Z,85.45
2023-05-16T00:33:56.708Z,85.55
2023-05-16T00:34:56.982Z,85.86
2023-05-16T00:35:56.652Z,85.45
2023-05-16T00:36:56.882Z,85.59
2023-05-16T00:37:56.896Z,85.79
2023-05-16T00:38:56.706Z,86.00
2023-05-16T00:39:56.549Z,86.20
2023-05-16T00:40:56.683Z,86.30
2023-05-16T00:41:56.563Z,86.30
2023-05-16T00:42:56.718Z,86.30
2023-05-16T00:43:56.522Z,86.30
2023-05-16T00:44:56.813Z,86.20
2023-05-16T00:45:56.560Z,86.30
2023-05-16T00:46:56.641Z,86.30
2023-05-16T00:47:56.559Z,86.30
2023-05-16T00:48:56.468Z,86.41
2023-05-16T00:49:56.473Z,86.41
2023-05-16T00:50:56.445Z,86.51
2023-05-16T00:51:56.426Z,86.71
2023-05-16T00:52:56.404Z,86.61
2023-05-16T00:53:56.410Z,86.51
2023-05-16T00:54:56.539Z,86.71
2023-05-16T00:55:56.369Z,86.51
2023-05-16T00:56:56.396Z,86.51
2023-05-16T00:57:56.395Z,86.41
2023-05-16T00:58:56.431Z,86.30
2023-05-16T00:59:56.355Z,86.20
2023-05-16T01:00:56.356Z,86.41
2023-05-16T01:01:56.442Z,86.41
2023-05-16T01:02:56.431Z,86.10
2023-05-16T01:03:56.394Z,86.30
2023-05-16T01:04:56.333Z,86.41
2023-05-16T01:05:56.242Z,86.51
2023-05-16T01:06:56.307Z,86.82
2023-05-16T01:07:56.233Z,87.12
2023-05-16T01:08:56.243Z,87.12
2023-05-16T01:09:56.216Z,86.91
2023-05-16T01:10:56.233Z,86.82
2023-05-16T01:11:56.176Z,87.02
2023-05-16T01:12:56.219Z,87.43
2023-05-16T01:13:56.182Z,87.84
2023-05-16T01:14:56.154Z,87.43
2023-05-16T01:15:56.225Z,87.73
2023-05-16T01:16:56.154Z,87.84
2023-05-16T01:17:56.363Z,88.04
2023-05-16T01:18:56.357Z,87.63
2023-05-16T01:19:56.103Z,87.32
2023-05-16T01:20:56.104Z,87.43
2023-05-16T01:21:56.483Z,87.23
2023-05-16T01:22:56.088Z,87.32
2023-05-16T01:23:56.020Z,87.53
2023-05-16T01:24:56.096Z,87.37
2023-05-16T01:25:56.033Z,87.47
2023-05-16T01:26:56.048Z,87.47
2023-05-16T01:27:56.007Z,87.67
2023-05-16T01:28:56.190Z,87.47
2023-05-16T01:29:56.033Z,87.77
2023-05-16T01:30:56.005Z,87.77
2023-05-16T01:31:56.056Z,87.88
2023-05-16T01:32:56.013Z,87.98
2023-05-16T01:33:55.955Z,87.88
2023-05-16T01:34:55.922Z,87.88
2023-05-16T01:35:56.134Z,87.88
2023-05-16T01:36:55.915Z,87.77
2023-05-16T01:37:56.147Z,87.67
2023-05-16T01:38:56.058Z,87.77
2023-05-16T01:39:55.841Z,87.88
2023-05-16T01:40:55.889Z,87.67
2023-05-16T01:41:55.912Z,87.67
2023-05-16T01:42:55.875Z,87.67
2023-05-16T01:43:55.830Z,87.88
2023-05-16T01:44:55.829Z,87.88
2023-05-16T01:45:55.798Z,87.67
2023-05-16T01:46:55.851Z,87.57
2023-05-16T01:47:55.820Z,87.67
2023-05-16T01:48:55.791Z,87.57
2023-05-16T01:49:55.779Z,87.88
2023-05-16T01:50:55.747Z,88.29
2023-05-16T01:51:55.728Z,88.39
2023-05-16T01:52:55.873Z,88.18
2023-05-16T01:53:55.731Z,88.23
2023-05-16T01:54:55.725Z,87.61
2023-05-16T01:55:55.651Z,86.69
2023-05-16T01:56:55.689Z,86.29
2023-05-16T01:57:55.726Z,86.18
2023-05-16T01:58:55.923Z,85.97
2023-05-16T01:59:55.917Z,86.02
2023-05-16T02:00:55.651Z,86.02
2023-05-16T02:01:55.625Z,86.08
2023-05-16T02:02:55.632Z,86.08
2023-05-16T02:03:55.581Z,85.88
2023-05-16T02:04:55.861Z,85.47
2023-05-16T02:05:55.825Z,85.06
2023-05-16T02:06:55.574Z,84.65
2023-05-16T02:07:55.532Z,84.24
2023-05-16T02:08:55.529Z,84.14
2023-05-16T02:09:55.653Z,84.03
2023-05-16T02:10:55.575Z,83.62
2023-05-16T02:11:55.528Z,83.42
2023-05-16T02:12:55.557Z,82.95
2023-05-16T02:13:55.476Z,82.43
2023-05-16T02:14:55.473Z,82.54
2023-05-16T02:15:55.469Z,82.54
2023-05-16T02:16:55.540Z,81.93
2023-05-16T02:17:55.516Z,81.62
2023-05-16T02:18:55.578Z,81.82
2023-05-16T02:19:55.430Z,82.03
2023-05-16T02:20:55.386Z,81.82
2023-05-16T02:21:55.407Z,81.93
2023-05-16T02:22:55.414Z,82.03
2023-05-16T02:23:55.657Z,82.13
2023-05-16T02:24:55.374Z,82.03
2023-05-16T02:25:55.326Z,82.03
2023-05-16T02:26:55.345Z,82.13
2023-05-16T02:27:55.329Z,82.34
2023-05-16T02:28:55.332Z,82.23
2023-05-16T02:29:55.268Z,81.96
2023-05-16T02:30:55.315Z,82.17
2023-05-16T02:31:55.273Z,82.48
2023-05-16T02:32:55.293Z,82.57
2023-05-16T02:33:55.243Z,82.68
2023-05-16T02:34:55.791Z,82.68
2023-05-16T02:35:55.217Z,82.78
2023-05-16T02:36:55.255Z,82.68
2023-05-16T02:37:55.201Z,82.68
2023-05-16T02:38:55.403Z,82.57
2023-05-16T02:39:55.278Z,82.78
2023-05-16T02:40:55.289Z,83.09
2023-05-16T02:41:55.130Z,83.09
2023-05-16T02:42:55.153Z,83.19
2023-05-16T02:43:55.202Z,82.98
2023-05-16T02:44:55.135Z,83.09
2023-05-16T02:45:55.135Z,83.19
2023-05-16T02:46:55.091Z,83.09
2023-05-16T02:47:55.103Z,83.29
2023-05-16T02:48:55.088Z,83.09
2023-05-16T02:49:55.050Z,83.09
2023-05-16T02:50:55.428Z,83.19
2023-05-16T02:51:55.018Z,83.39
2023-05-16T02:52:55.037Z,83.39
2023-05-16T02:53:55.011Z,83.50
2023-05-16T02:55:10.010Z,83.70
2023-05-16T02:55:55.969Z,83.91
2023-05-16T02:56:54.976Z,83.91
2023-05-16T02:57:54.955Z,83.81
2023-05-16T02:58:54.971Z,83.39
2023-05-16T02:59:55.823Z,83.50
2023-05-16T03:00:55.600Z,83.70
2023-05-16T03:01:55.007Z,83.50
2023-05-16T03:02:55.035Z,83.50
2023-05-16T03:03:55.078Z,83.70
2023-05-16T03:04:54.908Z,83.81
2023-05-16T03:05:54.853Z,83.50
2023-05-16T03:06:54.913Z,83.29
2023-05-16T03:07:54.858Z,83.44
2023-05-16T03:08:55.041Z,83.54
2023-05-16T03:09:54.810Z,83.54
2023-05-16T03:10:54.881Z,83.74
2023-05-16T03:11:54.821Z,83.84
2023-05-16T03:12:54.808Z,83.95
2023-05-16T03:13:54.780Z,84.15
2023-05-16T03:14:54.762Z,84.15
2023-05-16T03:15:54.784Z,83.95
2023-05-16T03:16:54.770Z,83.84
2023-05-16T03:17:54.811Z,83.81
2023-05-16T03:18:54.784Z,83.84
2023-05-16T03:19:54.711Z,83.84
2023-05-16T03:20:54.850Z,83.74
2023-05-16T03:21:54.690Z,83.54
2023-05-16T03:22:54.725Z,83.50
2023-05-16T03:24:01.954Z,83.74
2023-05-16T03:24:54.651Z,83.54
2023-05-16T03:25:54.638Z,83.64
2023-05-16T03:26:54.624Z,83.84
2023-05-16T03:27:54.678Z,83.74
2023-05-16T03:28:55.189Z,83.54
2023-05-16T03:29:54.719Z,83.54
2023-05-16T03:30:54.564Z,83.74
2023-05-16T03:31:54.601Z,84.25
2023-05-16T03:32:54.595Z,84.77
2023-05-16T03:33:54.619Z,84.77
2023-05-16T03:34:54.517Z,84.56
2023-05-16T03:35:54.595Z,84.25
2023-05-16T03:36:54.512Z,84.25
2023-05-16T03:37:54.526Z,84.87
2023-05-16T03:38:54.500Z,85.48
2023-05-16T03:39:54.488Z,85.79
2023-05-16T03:40:54.657Z,84.97
2023-05-16T03:41:54.565Z,84.97
2023-05-16T03:42:54.458Z,85.17
2023-05-16T03:43:54.478Z,85.42
2023-05-16T03:44:54.394Z,85.83
2023-05-16T03:45:54.925Z,85.72
2023-05-16T03:46:54.397Z,85.72
2023-05-16T03:47:54.454Z,85.72
2023-05-16T03:48:54.359Z,85.11
2023-05-16T03:49:54.377Z,85.42
2023-05-16T03:50:54.352Z,85.72
2023-05-16T03:51:54.367Z,86.24
2023-05-16T03:52:54.514Z,86.55
2023-05-16T03:53:54.337Z,86.44
2023-05-16T03:54:54.327Z,86.14
2023-05-16T03:55:54.337Z,86.04
2023-05-16T03:56:54.290Z,85.87
2023-05-16T03:57:54.278Z,85.87
2023-05-16T03:58:54.264Z,86.48
2023-05-16T03:59:54.273Z,86.18
2023-05-16T04:00:54.242Z,85.97
2023-05-16T04:01:54.983Z,86.07
2023-05-16T04:02:54.237Z,86.28
2023-05-16T04:03:54.219Z,86.18
2023-05-16T04:04:54.201Z,86.28
2023-05-16T04:05:54.203Z,86.38
2023-05-16T04:06:54.832Z,86.58
2023-05-16T04:07:54.174Z,86.69
2023-05-16T04:08:54.948Z,86.69
2023-05-16T04:09:54.194Z,86.48
2023-05-16T04:10:54.126Z,86.38
2023-05-16T04:11:54.128Z,86.58
2023-05-16T04:12:54.112Z,86.18
2023-05-16T04:13:54.205Z,86.07
2023-05-16T04:14:54.068Z,86.48
2023-05-16T04:15:54.094Z,85.77
2023-05-16T04:16:54.104Z,86.18
2023-05-16T04:17:54.147Z,86.48
2023-05-16T04:18:54.049Z,86.90
2023-05-16T04:19:54.468Z,86.58
2023-05-16T04:20:54.437Z,86.58
2023-05-16T04:21:54.592Z,86.69
2023-05-16T04:22:54.434Z,86.58
2023-05-16T04:23:54.133Z,86.63
2023-05-16T04:24:53.970Z,86.63
2023-05-16T04:25:53.981Z,86.42
2023-05-16T04:26:53.928Z,85.91
2023-05-16T04:27:53.935Z,85.71
2023-05-16T04:28:53.962Z,86.01
2023-05-16T04:29:53.903Z,86.22
2023-05-16T04:30:53.903Z,86.52
2023-05-16T04:31:53.946Z,86.83
2023-05-16T04:32:53.937Z,87.34
2023-05-16T04:33:53.870Z,87.14
2023-05-16T04:34:53.911Z,87.34
2023-05-16T04:35:53.959Z,87.76
2023-05-16T04:36:53.955Z,87.85
2023-05-16T04:37:55.283Z,87.65
2023-05-16T04:38:53.784Z,87.34
2023-05-16T04:39:53.842Z,87.55
2023-05-16T04:40:53.762Z,87.85
2023-05-16T04:41:53.858Z,88.17
2023-05-16T04:42:53.762Z,87.85
2023-05-16T04:43:53.761Z,87.38
2023-05-16T04:44:53.726Z,87.59
2023-05-16T04:45:53.782Z,88.00
2023-05-16T04:46:53.727Z,87.70
2023-05-16T04:47:53.742Z,87.59
2023-05-16T04:48:53.671Z,87.90
2023-05-16T04:49:53.800Z,87.90
2023-05-16T04:50:53.646Z,87.79
2023-05-16T04:51:53.653Z,87.79
2023-05-16T04:52:55.744Z,88.10
2023-05-16T04:53:53.640Z,87.90
2023-05-16T04:54:53.599Z,87.28
2023-05-16T04:55:53.663Z,86.87
2023-05-16T04:56:53.583Z,86.98
2023-05-16T04:57:53.596Z,87.18
2023-05-16T04:58:53.618Z,87.28
2023-05-16T04:59:53.590Z,87.28
2023-05-16T05:00:53.568Z,86.46
2023-05-16T05:01:53.578Z,85.95
2023-05-16T05:02:53.640Z,85.13
2023-05-16T05:03:53.882Z,85.23
2023-05-16T05:04:53.558Z,85.85
2023-05-16T05:05:53.545Z,86.05
2023-05-16T05:06:53.489Z,86.15
2023-05-16T05:07:53.506Z,86.36
2023-05-16T05:08:53.436Z,86.25
2023-05-16T05:09:53.452Z,85.85
2023-05-16T05:10:53.616Z,85.03
2023-05-16T05:11:53.460Z,85.54
2023-05-16T05:12:53.422Z,85.95
2023-05-16T05:13:53.753Z,86.22
2023-05-16T05:14:53.673Z,86.22
2023-05-16T05:15:53.405Z,85.71
2023-05-16T05:16:53.428Z,85.71
2023-05-16T05:17:53.496Z,86.01
2023-05-16T05:18:53.465Z,86.22
2023-05-16T05:19:53.376Z,85.91
2023-05-16T05:20:53.630Z,85.60
2023-05-16T05:21:53.322Z,85.71
2023-05-16T05:22:53.954Z,85.71
2023-05-16T05:23:53.345Z,85.50
2023-05-16T05:24:53.297Z,85.39
2023-05-16T05:25:53.365Z,85.30
2023-05-16T05:26:53.520Z,85.50
2023-05-16T05:27:53.466Z,85.60
2023-05-16T05:29:04.446Z,85.91
2023-05-16T05:29:54.295Z,85.71
2023-05-16T05:30:53.582Z,85.46
2023-05-16T05:31:53.260Z,85.15
2023-05-16T05:32:53.227Z,85.46
2023-05-16T05:33:53.278Z,85.46
2023-05-16T05:34:53.617Z,85.15
2023-05-16T05:35:53.820Z,84.74
2023-05-16T05:36:53.134Z,83.82
2023-05-16T05:37:53.175Z,83.72
2023-05-16T05:38:53.144Z,84.03
2023-05-16T05:39:53.249Z,84.44
2023-05-16T05:40:53.235Z,84.12
2023-05-16T05:41:53.237Z,83.20
2023-05-16T05:42:53.157Z,83.20
2023-05-16T05:43:53.171Z,83.41
2023-05-16T05:44:53.327Z,84.03
2023-05-16T05:45:53.324Z,84.33
2023-05-16T05:46:53.276Z,84.44
2023-05-16T05:47:53.259Z,84.33
2023-05-16T05:48:53.320Z,83.82
2023-05-16T05:49:53.018Z,84.03
2023-05-16T05:50:53.300Z,83.37
2023-05-16T05:51:53.316Z,82.24
2023-05-16T05:52:53.107Z,82.65
2023-05-16T05:53:52.953Z,82.35
2023-05-16T05:54:53.329Z,82.71
2023-05-16T05:55:52.972Z,82.48
2023-05-16T05:56:53.246Z,81.86
2023-05-16T05:57:53.058Z,82.07
2023-05-16T05:58:52.880Z,81.01
2023-05-16T05:59:52.887Z,80.60
2023-05-16T06:00:53.003Z,79.74
2023-05-16T06:01:53.217Z,78.82
2023-05-16T06:02:53.213Z,78.92
2023-05-16T06:03:53.165Z,79.23
2023-05-16T06:04:53.038Z,78.34
2023-05-16T06:05:53.269Z,78.14
2023-05-16T06:06:53.212Z,78.34
2023-05-16T06:07:52.925Z,79.37
2023-05-16T06:08:53.330Z,78.49
2023-05-16T06:09:53.350Z,77.67
2023-05-16T06:10:52.828Z,79.20
2023-05-16T06:11:52.952Z,79.61
2023-05-16T06:12:53.019Z,79.34
2023-05-16T06:13:52.763Z,79.34
2023-05-16T06:14:52.747Z,79.64
2023-05-16T06:15:52.767Z,79.58
2023-05-16T06:16:53.009Z,80.40
2023-05-16T06:17:52.958Z,80.51
2023-05-16T06:18:52.806Z,80.81
2023-05-16T06:19:52.882Z,80.51
2023-05-16T06:20:52.790Z,79.41
2023-05-16T06:21:52.628Z,80.13
2023-05-16T06:22:52.607Z,80.74
2023-05-16T06:23:52.721Z,81.05
2023-05-16T06:24:52.719Z,80.85
2023-05-16T06:25:52.738Z,80.85
2023-05-16T06:26:52.553Z,80.74
2023-05-16T06:27:52.567Z,80.74
2023-05-16T06:28:52.551Z,79.93
2023-05-16T06:29:52.564Z,80.03
2023-05-16T06:30:52.760Z,80.13
2023-05-16T06:31:52.808Z,80.13
2023-05-16T06:32:52.836Z,79.82
2023-05-16T06:33:52.601Z,79.52
2023-05-16T06:34:52.471Z,78.86
2023-05-16T06:35:52.524Z,78.76
2023-05-16T06:36:52.501Z,79.00
2023-05-16T06:37:52.508Z,78.49
2023-05-16T06:38:52.620Z,78.49
2023-05-16T06:39:52.433Z,78.49
2023-05-16T06:40:52.751Z,79.62
2023-05-16T06:41:54.306Z,79.62
2023-05-16T06:42:52.445Z,79.31
2023-05-16T06:43:52.377Z,78.08
2023-05-16T06:44:52.415Z,77.73
2023-05-16T06:45:52.385Z,77.84
2023-05-16T06:46:52.402Z,77.80
2023-05-16T06:47:55.169Z,77.50
2023-05-16T06:48:52.593Z,76.78
2023-05-16T06:49:52.334Z,77.50
2023-05-16T06:50:52.409Z,77.26
2023-05-16T06:51:52.468Z,76.13
2023-05-16T06:52:52.297Z,75.82
2023-05-16T06:53:52.314Z,76.23
2023-05-16T06:54:52.261Z,74.80
2023-05-16T06:55:52.434Z,75.42
2023-05-16T06:56:52.219Z,75.21
2023-05-16T06:57:52.262Z,75.01
2023-05-16T06:58:52.342Z,73.78
2023-05-16T06:59:52.198Z,73.50
2023-05-16T07:00:52.490Z,72.69
2023-05-16T07:01:52.383Z,72.96
2023-05-16T07:02:52.299Z,73.36
2023-05-16T07:03:52.363Z,74.19
2023-05-16T07:04:52.551Z,74.76
2023-05-16T07:05:52.193Z,73.81
2023-05-16T07:06:52.279Z,73.68
2023-05-16T07:07:52.234Z,73.23
2023-05-16T07:08:52.111Z,71.39
2023-05-16T07:09:52.237Z,71.97
2023-05-16T07:10:54.119Z,71.22
2023-05-16T07:11:52.267Z,70.40
2023-05-16T07:12:52.040Z,71.29
2023-05-16T07:13:52.072Z,69.76
2023-05-16T07:14:52.260Z,68.54
2023-05-16T07:15:52.261Z,69.25
2023-05-16T07:16:52.015Z,67.82
2023-05-16T07:17:52.052Z,66.74
2023-05-16T07:18:52.038Z,66.63
2023-05-16T07:19:52.082Z,66.56
2023-05-16T07:20:52.563Z,66.25
2023-05-16T07:21:51.941Z,67.41
2023-05-16T07:22:51.922Z,67.00
2023-05-16T07:23:51.918Z,67.21
2023-05-16T07:24:51.998Z,67.71
2023-05-16T07:25:51.926Z,64.17
2023-05-16T07:26:51.985Z,66.83
2023-05-16T07:27:51.888Z,67.03
2023-05-16T07:28:51.895Z,66.42
2023-05-16T07:29:51.885Z,68.05
2023-05-16T07:30:51.834Z,67.65
2023-05-16T07:31:52.019Z,67.75
2023-05-16T07:32:52.064Z,67.65
2023-05-16T07:33:51.813Z,68.16
2023-05-16T07:34:51.838Z,68.39
2023-05-16T07:35:54.237Z,67.88
2023-05-16T07:36:53.235Z,68.26
2023-05-16T07:37:51.906Z,67.95
2023-05-16T07:38:51.737Z,68.43
2023-05-16T07:39:51.755Z,67.92
2023-05-16T07:40:51.725Z,66.39
2023-05-16T07:41:51.713Z,66.80
2023-05-16T07:42:51.740Z,66.49
2023-05-16T07:43:51.687Z,65.57
2023-05-16T07:44:51.746Z,65.16
2023-05-16T07:45:52.197Z,65.06
2023-05-16T07:46:53.691Z,64.34
2023-05-16T07:47:51.728Z,64.48
2023-05-16T07:48:51.641Z,64.07
2023-05-16T07:49:51.657Z,65.16
2023-05-16T07:50:53.180Z,65.37
2023-05-16T07:51:51.583Z,64.96
2023-05-16T07:52:51.610Z,64.93
2023-05-16T07:53:51.729Z,65.00
2023-05-16T07:54:51.846Z,63.37
2023-05-16T07:55:51.529Z,64.08
2023-05-16T07:56:51.619Z,63.85
2023-05-16T07:57:51.646Z,64.22
2023-05-16T07:58:51.984Z,62.70
2023-05-16T07:59:51.803Z,62.18
2023-05-16T08:00:51.501Z,61.47
2023-05-16T08:01:51.469Z,62.21
2023-05-16T08:02:51.641Z,61.32
2023-05-16T08:03:51.475Z,62.45
2023-05-16T08:04:51.588Z,62.45
2023-05-16T08:05:51.469Z,62.96
2023-05-16T08:06:51.596Z,61.94
2023-05-16T08:07:51.585Z,62.24
2023-05-16T08:08:51.573Z,61.43
2023-05-16T08:09:51.731Z,62.32
2023-05-16T08:10:51.402Z,62.42
2023-05-16T08:11:51.380Z,61.68
2023-05-16T08:12:51.387Z,61.07
2023-05-16T08:13:51.347Z,61.68
2023-05-16T08:14:51.351Z,61.57
2023-05-16T08:15:51.612Z,60.76
2023-05-16T08:16:51.322Z,61.27
2023-05-16T08:17:51.387Z,60.86
2023-05-16T08:18:51.353Z,60.55
2023-05-16T08:19:51.393Z,60.45
2023-05-16T08:20:52.149Z,60.86
2023-05-16T08:21:51.260Z,59.53
2023-05-16T08:22:51.311Z,59.05
2023-05-16T08:23:51.280Z,60.45
2023-05-16T08:24:51.246Z,59.64
2023-05-16T08:25:51.194Z,58.41
2023-05-16T08:26:51.273Z,57.73
2023-05-16T08:27:51.182Z,57.60
2023-05-16T08:28:51.219Z,59.33
2023-05-16T08:29:51.239Z,60.32
2023-05-16T08:30:51.154Z,58.76
2023-05-16T08:31:51.251Z,58.03
2023-05-16T08:32:51.179Z,56.20
2023-05-16T08:33:51.113Z,57.11
2023-05-16T08:34:51.123Z,57.21
2023-05-16T08:35:51.493Z,55.66
2023-05-16T08:36:51.417Z,56.77
2023-05-16T08:37:51.541Z,53.96
2023-05-16T08:38:51.222Z,54.94
2023-05-16T08:39:51.053Z,56.16
2023-05-16T08:40:51.132Z,55.53
2023-05-16T08:41:51.130Z,55.10
2023-05-16T08:42:51.169Z,55.71
2023-05-16T08:43:51.153Z,54.36
2023-05-16T08:44:51.367Z,54.33
2023-05-16T08:45:51.257Z,54.64
2023-05-16T08:46:51.300Z,54.00
2023-05-16T08:47:51.010Z,52.89
2023-05-16T08:48:50.968Z,52.15
2023-05-16T08:49:50.989Z,52.56
2023-05-16T08:50:51.694Z,53.04
2023-05-16T08:51:50.888Z,52.33
2023-05-16T08:52:50.988Z,51.93
2023-05-16T08:53:50.886Z,52.71
2023-05-16T08:55:01.950Z,53.22
2023-05-16T08:55:51.882Z,52.51
2023-05-16T08:56:50.870Z,51.09
2023-05-16T08:57:50.875Z,50.40
2023-05-16T08:58:50.854Z,50.23
2023-05-16T08:59:50.792Z,50.12
2023-05-16T09:00:50.831Z,49.92
2023-05-16T09:01:50.821Z,49.01
2023-05-16T09:02:50.833Z,50.84
2023-05-16T09:03:50.861Z,49.64
2023-05-16T09:04:50.978Z,50.73
2023-05-16T09:05:50.764Z,50.65
2023-05-16T09:06:50.759Z,49.84
2023-05-16T09:07:50.992Z,50.56
2023-05-16T09:08:51.010Z,50.15
2023-05-16T09:09:50.856Z,51.54
2023-05-16T09:10:50.715Z,49.62
2023-05-16T09:11:50.670Z,50.53
2023-05-16T09:12:51.346Z,51.04
2023-05-16T09:13:51.038Z,51.12
2023-05-16T09:14:51.485Z,51.42
2023-05-16T09:15:51.107Z,49.67
2023-05-16T09:16:50.818Z,50.35
2023-05-16T09:17:50.720Z,49.55
2023-05-16T09:18:50.662Z,49.24
2023-05-16T09:19:50.595Z,50.46
2023-05-16T09:20:50.660Z,48.63
2023-05-16T09:21:50.604Z,48.25
2023-05-16T09:22:50.575Z,49.57
2023-05-16T09:23:50.621Z,49.47
2023-05-16T09:24:50.818Z,50.20
2023-05-16T09:25:50.550Z,48.88
2023-05-16T09:26:51.112Z,49.01
2023-05-16T09:27:50.677Z,50.23
2023-05-16T09:28:50.952Z,49.82
2023-05-16T09:29:50.992Z,48.80
2023-05-16T09:30:50.546Z,48.32
2023-05-16T09:31:50.591Z,48.02
2023-05-16T09:32:50.549Z,48.22
2023-05-16T09:33:50.426Z,48.11
2023-05-16T09:34:50.655Z,49.23
2023-05-16T09:35:50.647Z,48.50
2023-05-16T09:36:50.440Z,49.01
2023-05-16T09:37:50.592Z,48.91
2023-05-16T09:38:50.418Z,48.58
2023-05-16T09:39:50.357Z,47.56
2023-05-16T09:40:50.382Z,46.73
2023-05-16T09:41:50.363Z,46.94
2023-05-16T09:42:50.364Z,44.50
2023-05-16T09:43:50.631Z,45.72
2023-05-16T09:44:50.955Z,45.42
2023-05-16T09:45:50.299Z,44.30
2023-05-16T09:46:50.843Z,44.81
2023-05-16T09:47:51.099Z,44.07
2023-05-16T09:48:57.859Z,44.50
2023-05-16T09:49:50.249Z,44.58
2023-05-16T09:50:50.255Z,44.78
2023-05-16T09:51:51.953Z,45.19
2023-05-16T09:52:50.277Z,45.98
2023-05-16T09:53:50.220Z,44.87
2023-05-16T09:54:50.308Z,44.64
2023-05-16T09:55:50.186Z,45.63
2023-05-16T09:56:50.185Z,43.71
2023-05-16T09:57:50.198Z,43.69
2023-05-16T09:58:50.184Z,43.77
2023-05-16T09:59:50.469Z,43.46
2023-05-16T10:00:50.336Z,41.95
2023-05-16T10:01:50.157Z,42.84
2023-05-16T10:02:50.416Z,42.46
2023-05-16T10:03:50.235Z,43.26
2023-05-16T10:04:50.117Z,42.94
2023-05-16T10:05:50.681Z,43.24
2023-05-16T10:06:50.855Z,43.14
2023-05-16T10:07:50.821Z,42.21
2023-05-16T10:08:50.406Z,43.40
2023-05-16T10:09:50.103Z,42.38
2023-05-16T10:10:50.098Z,41.06
2023-05-16T10:11:50.036Z,41.87
2023-05-16T10:12:50.117Z,42.18
2023-05-16T10:13:49.998Z,42.40
2023-05-16T10:14:50.055Z,42.52
2023-05-16T10:15:49.987Z,42.01
2023-05-16T10:16:50.262Z,43.02
2023-05-16T10:17:49.985Z,41.71
2023-05-16T10:18:50.026Z,41.73
2023-05-16T10:19:49.932Z,43.24
2023-05-16T10:20:49.937Z,44.05
2023-05-16T10:21:51.977Z,43.34
2023-05-16T10:22:49.983Z,43.34
2023-05-16T10:23:49.872Z,43.34
2023-05-16T10:24:49.994Z,44.35
2023-05-16T10:25:50.024Z,44.56
2023-05-16T10:26:50.072Z,44.46
2023-05-16T10:27:49.928Z,44.56
2023-05-16T10:28:49.960Z,44.25
2023-05-16T10:29:54.809Z,43.75
2023-05-16T10:30:50.962Z,43.55
2023-05-16T10:31:49.929Z,42.96
2023-05-16T10:32:49.995Z,42.86
2023-05-16T10:33:49.964Z,42.66
2023-05-16T10:34:49.967Z,41.35
2023-05-16T10:35:50.009Z,41.64
2023-05-16T10:36:49.792Z,40.88
2023-05-16T10:37:50.007Z,42.07
2023-05-16T10:38:49.781Z,43.67
2023-05-16T10:39:49.989Z,43.34
2023-05-16T10:40:50.020Z,41.50
2023-05-16T10:41:50.341Z,41.20
2023-05-16T10:42:50.039Z,41.50
2023-05-16T10:43:50.058Z,41.71
2023-05-16T10:45:01.845Z,41.49
2023-05-16T10:45:50.755Z,41.89
2023-05-16T10:46:49.768Z,40.68
2023-05-16T10:47:49.773Z,40.72
2023-05-16T10:48:51.362Z,42.13
2023-05-16T10:49:49.711Z,41.87
2023-05-16T10:50:49.892Z,43.71
2023-05-16T10:51:49.564Z,44.21
2023-05-16T10:52:49.672Z,44.24
2023-05-16T10:53:49.614Z,44.44
2023-05-16T10:54:49.651Z,44.52
2023-05-16T10:55:49.626Z,43.30
2023-05-16T10:56:49.600Z,43.08
2023-05-16T10:57:49.512Z,43.59
2023-05-16T10:58:49.469Z,42.96
2023-05-16T10:59:49.479Z,42.43
2023-05-16T11:00:49.725Z,41.93
2023-05-16T11:01:49.524Z,42.82
2023-05-16T11:02:49.555Z,41.81
2023-05-16T11:03:49.551Z,41.61
2023-05-16T11:04:49.590Z,41.39
2023-05-16T11:05:49.407Z,40.59
2023-05-16T11:06:49.408Z,40.90
2023-05-16T11:07:49.502Z,42.52
2023-05-16T11:08:49.522Z,41.00
2023-05-16T11:09:49.502Z,41.28
2023-05-16T11:10:49.559Z,40.78
2023-05-16T11:11:49.924Z,39.45
2023-05-16T11:12:49.755Z,39.75
2023-05-16T11:13:49.712Z,39.95
2023-05-16T11:14:49.363Z,40.36
2023-05-16T11:15:49.280Z,39.85
2023-05-16T11:16:50.023Z,40.16
2023-05-16T11:17:49.599Z,39.47
2023-05-16T11:18:49.505Z,41.39
2023-05-16T11:19:50.004Z,40.78
2023-05-16T11:20:49.218Z,41.81
2023-05-16T11:21:49.252Z,41.02
2023-05-16T11:22:49.339Z,41.24
2023-05-16T11:23:49.388Z,41.78
2023-05-16T11:24:49.464Z,41.69
2023-05-16T11:25:49.216Z,41.66
2023-05-16T11:26:49.171Z,40.95
2023-05-16T11:27:49.510Z,39.32
2023-05-16T11:28:49.640Z,39.12
2023-05-16T11:29:49.346Z,39.70
2023-05-16T11:30:49.738Z,39.20
2023-05-16T11:31:49.428Z,39.79
2023-05-16T11:32:49.376Z,39.26
2023-05-16T11:33:49.579Z,39.87
2023-05-16T11:34:49.918Z,40.25
2023-05-16T11:35:49.581Z,38.95
2023-05-16T11:36:49.964Z,38.96
2023-05-16T11:37:49.398Z,39.67
2023-05-16T11:38:49.207Z,40.17
2023-05-16T11:39:49.142Z,39.99
2023-05-16T11:40:49.083Z,39.69
2023-05-16T11:41:49.202Z,40.72
2023-05-16T11:42:48.995Z,39.91
2023-05-16T11:43:49.350Z,39.02
2023-05-16T11:44:49.129Z,39.73
2023-05-16T11:45:49.141Z,39.91
2023-05-16T11:46:49.173Z,39.20
2023-05-16T11:47:49.343Z,38.09
2023-05-16T11:48:49.291Z,38.68
2023-05-16T11:49:49.639Z,38.46
2023-05-16T11:50:48.993Z,39.23
2023-05-16T11:51:49.032Z,39.11
2023-05-16T11:52:48.906Z,39.11
2023-05-16T11:53:49.005Z,37.38
2023-05-16T11:54:48.976Z,37.38
2023-05-16T11:55:51.887Z,38.08
2023-05-16T11:56:49.812Z,37.07
2023-05-16T11:57:48.914Z,37.09
2023-05-16T11:58:48.936Z,36.49
2023-05-16T11:59:48.848Z,36.30
2023-05-16T12:00:49.033Z,37.53
2023-05-16T12:01:50.773Z,37.02
2023-05-16T12:02:48.792Z,38.13
2023-05-16T12:03:49.121Z,38.02
2023-05-16T12:04:48.923Z,37.70
2023-05-16T12:05:48.739Z,37.60
2023-05-16T12:06:48.665Z,38.22
2023-05-16T12:07:49.138Z,38.73
2023-05-16T12:08:49.004Z,37.82
2023-05-16T12:09:49.108Z,37.75
2023-05-16T12:10:49.094Z,39.06
2023-05-16T12:11:48.737Z,38.48
2023-05-16T12:12:48.615Z,38.98
2023-05-16T12:13:49.184Z,38.49
2023-05-16T12:14:50.659Z,39.83
2023-05-16T12:15:48.625Z,40.23
2023-05-16T12:16:48.758Z,40.52
2023-05-16T12:17:48.664Z,41.42
2023-05-16T12:18:48.715Z,39.81
2023-05-16T12:19:48.683Z,39.81
2023-05-16T12:20:48.659Z,38.90
2023-05-16T12:21:48.780Z,39.30
2023-05-16T12:22:48.787Z,39.81
2023-05-16T12:23:48.902Z,39.30
2023-05-16T12:24:48.481Z,39.40
2023-05-16T12:25:48.546Z,38.70
2023-05-16T12:26:49.227Z,39.30
2023-05-16T12:27:49.852Z,40.09
2023-05-16T12:28:48.617Z,39.69
2023-05-16T12:29:49.301Z,39.37
2023-05-16T12:30:48.546Z,40.98
2023-05-16T12:31:49.291Z,39.97
2023-05-16T12:32:48.500Z,39.47
2023-05-16T12:33:48.592Z,39.35
2023-05-16T12:34:48.376Z,38.35
2023-05-16T12:35:48.378Z,38.78
2023-05-16T12:36:48.706Z,39.99
2023-05-16T12:37:48.691Z,40.30
2023-05-16T12:38:48.314Z,40.09
2023-05-16T12:39:48.611Z,40.19
2023-05-16T12:40:48.324Z,39.89
2023-05-16T12:41:48.300Z,39.99
2023-05-16T12:42:48.932Z,41.63
2023-05-16T12:43:48.945Z,41.42
2023-05-16T12:44:48.722Z,40.64
2023-05-16T12:45:48.287Z,41.75
2023-05-16T12:46:49.110Z,41.95
2023-05-16T12:47:48.359Z,42.05
2023-05-16T12:48:48.230Z,41.32
2023-05-16T12:49:50.192Z,40.41
2023-05-16T12:50:48.189Z,40.59
2023-05-16T12:51:48.212Z,40.37
2023-05-16T12:52:48.227Z,40.96